sensor_id;sensor_type;location;lat;lon;timestamp;P1;durP1;ratioP1;P2;durP2;ratioP2
75620;SDS011;64574;48.506;-2.750;2023-05-15T00:01:14;9.55;;;6.32;;
75620;SDS011;64574;48.506;-2.750;2023-05-15T00:03:40;12.25;;;6.57;;
75620;SDS011;64574;48.506;-2.750;2023-05-15T00:06:05;9.63;;;6.93;;
75620;SDS011;64574;48.506;-2.750;2023-05-15T00:08:31;10.25;;;6.40;;
75620;SDS011;64574;48.506;-2.750;2023-05-15T00:10:57;9.90;;;6.30;;
75620;SDS011;64574;48.506;-2.750;2023-05-15T00:13:22;9.65;;;5.90;;
75620;SDS011;64574;48.506;-2.750;2023-05-15T00:15:48;10.30;;;6.43;;
75620;SDS011;64574;48.506;-2.750;2023-05-15T00:18:13;10.18;;;6.28;;
75620;SDS011;64574;48.506;-2.750;2023-05-15T00:20:39;10.40;;;5.97;;
75620;SDS011;64574;48.506;-2.750;2023-05-15T00:23:05;10.15;;;6.65;;
75620;SDS011;64574;48.506;-2.750;2023-05-15T00:25:31;10.18;;;7.03;;
75620;SDS011;64574;48.506;-2.750;2023-05-15T00:27:56;12.70;;;7.22;;
75620;SDS011;64574;48.506;-2.750;2023-05-15T00:30:22;11.07;;;6.70;;
75620;SDS011;64574;48.506;-2.750;2023-05-15T00:32:48;10.05;;;6.72;;
75620;SDS011;64574;48.506;-2.750;2023-05-15T00:35:13;13.00;;;6.25;;
75620;SDS011;64574;48.506;-2.750;2023-05-15T00:37:39;11.27;;;6.72;;
75620;SDS011;64574;48.506;-2.750;2023-05-15T00:40:05;13.25;;;6.70;;
75620;SDS011;64574;48.506;-2.750;2023-05-15T00:42:33;11.05;;;6.82;;
75620;SDS011;64574;48.506;-2.750;2023-05-15T00:44:59;10.27;;;6.50;;
75620;SDS011;64574;48.506;-2.750;2023-05-15T00:47:27;10.27;;;6.65;;
75620;SDS011;64574;48.506;-2.750;2023-05-15T00:49:54;9.85;;;6.68;;
75620;SDS011;64574;48.506;-2.750;2023-05-15T00:52:20;9.23;;;6.18;;
75620;SDS011;64574;48.506;-2.750;2023-05-15T00:54:47;14.02;;;6.28;;
75620;SDS011;64574;48.506;-2.750;2023-05-15T00:57:12;9.57;;;6.05;;
75620;SDS011;64574;48.506;-2.750;2023-05-15T00:59:39;9.40;;;6.22;;
75620;SDS011;64574;48.506;-2.750;2023-05-15T01:02:05;12.00;;;6.88;;
75620;SDS011;64574;48.506;-2.750;2023-05-15T01:04:31;10.98;;;6.75;;
75620;SDS011;64574;48.506;-2.750;2023-05-15T01:06:56;12.48;;;7.28;;
75620;SDS011;64574;48.506;-2.750;2023-05-15T01:09:22;10.48;;;6.72;;
75620;SDS011;64574;48.506;-2.750;2023-05-15T01:11:49;9.30;;;6.78;;
75620;SDS011;64574;48.506;-2.750;2023-05-15T01:14:17;13.98;;;7.30;;
75620;SDS011;64574;48.506;-2.750;2023-05-15T01:16:42;12.18;;;7.25;;
75620;SDS011;64574;48.506;-2.750;2023-05-15T01:19:08;11.85;;;6.85;;
75620;SDS011;64574;48.506;-2.750;2023-05-15T01:31:41;11.27;;;6.60;;
75620;SDS011;64574;48.506;-2.750;2023-05-15T01:34:08;12.35;;;7.32;;
75620;SDS011;64574;48.506;-2.750;2023-05-15T01:36:36;11.32;;;6.90;;
75620;SDS011;64574;48.506;-2.750;2023-05-15T01:39:07;11.27;;;7.38;;
75620;SDS011;64574;48.506;-2.750;2023-05-15T01:44:12;10.57;;;6.68;;
75620;SDS011;64574;48.506;-2.750;2023-05-15T01:46:43;12.57;;;7.13;;
75620;SDS011;64574;48.506;-2.750;2023-05-15T01:49:13;9.40;;;6.18;;
75620;SDS011;64574;48.506;-2.750;2023-05-15T01:51:43;9.95;;;5.85;;
75620;SDS011;64574;48.506;-2.750;2023-05-15T01:54:13;7.82;;;5.43;;
75620;SDS011;64574;48.506;-2.750;2023-05-15T01:56:40;8.40;;;5.75;;
75620;SDS011;64574;48.506;-2.750;2023-05-15T01:59:09;10.32;;;6.03;;
75620;SDS011;64574;48.506;-2.750;2023-05-15T02:01:37;8.45;;;5.18;;
75620;SDS011;64574;48.506;-2.750;2023-05-15T02:04:03;9.75;;;5.88;;
75620;SDS011;64574;48.506;-2.750;2023-05-15T02:06:30;7.35;;;5.20;;
75620;SDS011;64574;48.506;-2.750;2023-05-15T02:08:57;9.27;;;5.20;;
75620;SDS011;64574;48.506;-2.750;2023-05-15T02:11:26;9.25;;;4.75;;
75620;SDS011;64574;48.506;-2.750;2023-05-15T02:13:51;7.63;;;4.70;;
75620;SDS011;64574;48.506;-2.750;2023-05-15T02:16:20;8.70;;;4.43;;
75620;SDS011;64574;48.506;-2.750;2023-05-15T02:18:46;7.00;;;4.00;;
75620;SDS011;64574;48.506;-2.750;2023-05-15T02:21:12;9.93;;;4.10;;
75620;SDS011;64574;48.506;-2.750;2023-05-15T02:23:38;7.85;;;3.80;;
75620;SDS011;64574;48.506;-2.750;2023-05-15T02:31:29;6.15;;;3.70;;
75620;SDS011;64574;48.506;-2.750;2023-05-15T02:36:57;7.47;;;4.65;;
75620;SDS011;64574;48.506;-2.750;2023-05-15T02:39:25;7.50;;;4.10;;
75620;SDS011;64574;48.506;-2.750;2023-05-15T02:41:51;7.78;;;4.35;;
75620;SDS011;64574;48.506;-2.750;2023-05-15T02:44:17;6.32;;;4.07;;
75620;SDS011;64574;48.506;-2.750;2023-05-15T02:49:11;7.20;;;4.25;;
75620;SDS011;64574;48.506;-2.750;2023-05-15T02:51:38;9.32;;;3.92;;
75620;SDS011;64574;48.506;-2.750;2023-05-15T02:54:04;9.18;;;4.65;;
75620;SDS011;64574;48.506;-2.750;2023-05-15T02:56:30;7.05;;;4.28;;
75620;SDS011;64574;48.506;-2.750;2023-05-15T02:58:56;7.43;;;4.32;;
75620;SDS011;64574;48.506;-2.750;2023-05-15T03:01:22;6.13;;;3.97;;
75620;SDS011;64574;48.506;-2.750;2023-05-15T03:03:47;7.60;;;4.10;;
75620;SDS011;64574;48.506;-2.750;2023-05-15T03:06:13;8.38;;;4.38;;
75620;SDS011;64574;48.506;-2.750;2023-05-15T03:08:38;8.73;;;4.32;;
75620;SDS011;64574;48.506;-2.750;2023-05-15T03:11:04;7.35;;;4.13;;
75620;SDS011;64574;48.506;-2.750;2023-05-15T03:13:30;7.22;;;3.78;;
75620;SDS011;64574;48.506;-2.750;2023-05-15T03:15:55;8.27;;;4.10;;
75620;SDS011;64574;48.506;-2.750;2023-05-15T03:18:21;8.35;;;4.15;;
75620;SDS011;64574;48.506;-2.750;2023-05-15T03:20:46;8.10;;;3.92;;
75620;SDS011;64574;48.506;-2.750;2023-05-15T03:23:13;9.05;;;4.63;;
75620;SDS011;64574;48.506;-2.750;2023-05-15T03:25:39;5.82;;;3.80;;
75620;SDS011;64574;48.506;-2.750;2023-05-15T03:28:05;8.02;;;4.30;;
75620;SDS011;64574;48.506;-2.750;2023-05-15T03:30:30;7.07;;;4.13;;
75620;SDS011;64574;48.506;-2.750;2023-05-15T03:32:56;6.90;;;3.92;;
75620;SDS011;64574;48.506;-2.750;2023-05-15T03:35:22;6.15;;;3.72;;
75620;SDS011;64574;48.506;-2.750;2023-05-15T03:37:47;6.28;;;3.38;;
75620;SDS011;64574;48.506;-2.750;2023-05-15T03:40:13;6.05;;;3.80;;
75620;SDS011;64574;48.506;-2.750;2023-05-15T03:42:39;5.47;;;2.97;;
75620;SDS011;64574;48.506;-2.750;2023-05-15T03:45:04;8.00;;;3.67;;
75620;SDS011;64574;48.506;-2.750;2023-05-15T03:47:30;7.38;;;3.38;;
75620;SDS011;64574;48.506;-2.750;2023-05-15T03:49:56;6.57;;;3.55;;
75620;SDS011;64574;48.506;-2.750;2023-05-15T03:52:22;6.53;;;3.20;;
75620;SDS011;64574;48.506;-2.750;2023-05-15T03:54:47;5.10;;;3.05;;
75620;SDS011;64574;48.506;-2.750;2023-05-15T03:57:14;5.25;;;2.50;;
75620;SDS011;64574;48.506;-2.750;2023-05-15T03:59:40;6.00;;;2.67;;
75620;SDS011;64574;48.506;-2.750;2023-05-15T04:02:05;4.10;;;2.50;;
75620;SDS011;64574;48.506;-2.750;2023-05-15T04:04:31;5.07;;;2.42;;
75620;SDS011;64574;48.506;-2.750;2023-05-15T04:06:57;7.28;;;2.67;;
75620;SDS011;64574;48.506;-2.750;2023-05-15T04:09:23;6.72;;;3.03;;
75620;SDS011;64574;48.506;-2.750;2023-05-15T04:11:48;3.63;;;2.25;;
75620;SDS011;64574;48.506;-2.750;2023-05-15T04:14:14;4.88;;;2.47;;
75620;SDS011;64574;48.506;-2.750;2023-05-15T04:16:40;4.35;;;2.10;;
75620;SDS011;64574;48.506;-2.750;2023-05-15T04:19:05;6.15;;;2.40;;
75620;SDS011;64574;48.506;-2.750;2023-05-15T04:21:31;4.63;;;2.30;;
75620;SDS011;64574;48.506;-2.750;2023-05-15T04:23:56;4.85;;;2.22;;
75620;SDS011;64574;48.506;-2.750;2023-05-15T04:26:22;5.05;;;2.03;;
75620;SDS011;64574;48.506;-2.750;2023-05-15T04:28:47;3.30;;;1.85;;
75620;SDS011;64574;48.506;-2.750;2023-05-15T04:31:13;4.70;;;2.30;;
75620;SDS011;64574;48.506;-2.750;2023-05-15T04:33:39;2.90;;;1.90;;
75620;SDS011;64574;48.506;-2.750;2023-05-15T04:36:05;4.30;;;2.00;;
75620;SDS011;64574;48.506;-2.750;2023-05-15T04:38:31;2.95;;;1.75;;
75620;SDS011;64574;48.506;-2.750;2023-05-15T04:40:57;4.25;;;2.30;;
75620;SDS011;64574;48.506;-2.750;2023-05-15T04:43:23;5.13;;;1.80;;
75620;SDS011;64574;48.506;-2.750;2023-05-15T04:45:48;4.20;;;2.00;;
75620;SDS011;64574;48.506;-2.750;2023-05-15T04:48:14;3.20;;;1.73;;
75620;SDS011;64574;48.506;-2.750;2023-05-15T04:50:42;4.50;;;1.90;;
75620;SDS011;64574;48.506;-2.750;2023-05-15T04:53:07;2.70;;;1.60;;
75620;SDS011;64574;48.506;-2.750;2023-05-15T04:55:33;5.80;;;1.98;;
75620;SDS011;64574;48.506;-2.750;2023-05-15T04:57:58;3.10;;;1.85;;
75620;SDS011;64574;48.506;-2.750;2023-05-15T05:00:24;4.88;;;2.28;;
75620;SDS011;64574;48.506;-2.750;2023-05-15T05:02:50;7.50;;;2.10;;
75620;SDS011;64574;48.506;-2.750;2023-05-15T05:05:16;4.38;;;1.90;;
75620;SDS011;64574;48.506;-2.750;2023-05-15T05:07:41;5.45;;;2.10;;
75620;SDS011;64574;48.506;-2.750;2023-05-15T05:10:09;4.57;;;1.90;;
75620;SDS011;64574;48.506;-2.750;2023-05-15T05:12:35;6.95;;;2.10;;
75620;SDS011;64574;48.506;-2.750;2023-05-15T05:15:01;3.05;;;1.90;;
75620;SDS011;64574;48.506;-2.750;2023-05-15T05:17:26;4.95;;;1.70;;
75620;SDS011;64574;48.506;-2.750;2023-05-15T05:19:53;5.43;;;2.10;;
75620;SDS011;64574;48.506;-2.750;2023-05-15T05:22:18;6.72;;;2.05;;
75620;SDS011;64574;48.506;-2.750;2023-05-15T05:24:44;7.40;;;2.30;;
75620;SDS011;64574;48.506;-2.750;2023-05-15T05:27:10;6.22;;;2.08;;
75620;SDS011;64574;48.506;-2.750;2023-05-15T05:29:35;6.30;;;2.50;;
75620;SDS011;64574;48.506;-2.750;2023-05-15T05:32:01;4.50;;;1.95;;
75620;SDS011;64574;48.506;-2.750;2023-05-15T05:34:27;6.18;;;2.40;;
75620;SDS011;64574;48.506;-2.750;2023-05-15T05:36:52;7.15;;;2.35;;
75620;SDS011;64574;48.506;-2.750;2023-05-15T05:39:19;10.32;;;2.10;;
75620;SDS011;64574;48.506;-2.750;2023-05-15T05:41:45;3.70;;;1.83;;
75620;SDS011;64574;48.506;-2.750;2023-05-15T05:44:11;5.25;;;2.00;;
75620;SDS011;64574;48.506;-2.750;2023-05-15T05:46:36;3.92;;;1.95;;
75620;SDS011;64574;48.506;-2.750;2023-05-15T05:49:02;5.50;;;2.20;;
75620;SDS011;64574;48.506;-2.750;2023-05-15T05:51:27;4.25;;;2.00;;
75620;SDS011;64574;48.506;-2.750;2023-05-15T05:53:53;4.28;;;1.98;;
75620;SDS011;64574;48.506;-2.750;2023-05-15T05:56:19;4.38;;;2.10;;
75620;SDS011;64574;48.506;-2.750;2023-05-15T05:58:45;6.63;;;2.17;;
75620;SDS011;64574;48.506;-2.750;2023-05-15T06:01:11;6.57;;;2.78;;
75620;SDS011;64574;48.506;-2.750;2023-05-15T06:03:37;7.53;;;2.90;;
75620;SDS011;64574;48.506;-2.750;2023-05-15T06:06:03;3.92;;;2.28;;
75620;SDS011;64574;48.506;-2.750;2023-05-15T06:08:29;5.97;;;2.10;;
75620;SDS011;64574;48.506;-2.750;2023-05-15T06:10:55;6.10;;;2.80;;
75620;SDS011;64574;48.506;-2.750;2023-05-15T06:13:21;7.93;;;2.78;;
75620;SDS011;64574;48.506;-2.750;2023-05-15T06:15:47;9.02;;;3.17;;
75620;SDS011;64574;48.506;-2.750;2023-05-15T06:18:13;6.72;;;3.00;;
75620;SDS011;64574;48.506;-2.750;2023-05-15T06:20:38;4.47;;;3.00;;
75620;SDS011;64574;48.506;-2.750;2023-05-15T06:23:06;4.53;;;2.50;;
75620;SDS011;64574;48.506;-2.750;2023-05-15T06:25:32;5.60;;;2.40;;
75620;SDS011;64574;48.506;-2.750;2023-05-15T06:27:57;7.22;;;2.53;;
75620;SDS011;64574;48.506;-2.750;2023-05-15T06:30:23;8.27;;;2.50;;
75620;SDS011;64574;48.506;-2.750;2023-05-15T06:32:49;4.50;;;2.15;;
75620;SDS011;64574;48.506;-2.750;2023-05-15T06:35:15;9.80;;;2.55;;
75620;SDS011;64574;48.506;-2.750;2023-05-15T06:37:40;5.78;;;2.20;;
75620;SDS011;64574;48.506;-2.750;2023-05-15T06:40:06;4.88;;;2.08;;
75620;SDS011;64574;48.506;-2.750;2023-05-15T06:42:32;6.18;;;2.15;;
75620;SDS011;64574;48.506;-2.750;2023-05-15T06:44:58;4.35;;;2.15;;
75620;SDS011;64574;48.506;-2.750;2023-05-15T06:47:24;4.03;;;2.00;;
75620;SDS011;64574;48.506;-2.750;2023-05-15T06:49:50;6.05;;;2.35;;
75620;SDS011;64574;48.506;-2.750;2023-05-15T06:52:15;5.35;;;2.20;;
75620;SDS011;64574;48.506;-2.750;2023-05-15T06:54:41;7.38;;;3.05;;
75620;SDS011;64574;48.506;-2.750;2023-05-15T06:57:07;6.07;;;2.75;;
75620;SDS011;64574;48.506;-2.750;2023-05-15T06:59:32;6.47;;;2.53;;
75620;SDS011;64574;48.506;-2.750;2023-05-15T07:02:00;8.63;;;2.63;;
75620;SDS011;64574;48.506;-2.750;2023-05-15T07:04:26;5.85;;;2.28;;
75620;SDS011;64574;48.506;-2.750;2023-05-15T07:06:52;5.53;;;2.00;;
75620;SDS011;64574;48.506;-2.750;2023-05-15T07:09:18;4.30;;;2.20;;
75620;SDS011;64574;48.506;-2.750;2023-05-15T07:11:43;4.15;;;2.22;;
75620;SDS011;64574;48.506;-2.750;2023-05-15T07:14:09;5.03;;;2.10;;
75620;SDS011;64574;48.506;-2.750;2023-05-15T07:16:35;5.07;;;2.47;;
75620;SDS011;64574;48.506;-2.750;2023-05-15T07:19:00;4.15;;;2.00;;
75620;SDS011;64574;48.506;-2.750;2023-05-15T07:21:26;6.18;;;1.88;;
75620;SDS011;64574;48.506;-2.750;2023-05-15T07:23:51;2.22;;;1.42;;
75620;SDS011;64574;48.506;-2.750;2023-05-15T07:26:17;1.60;;;1.00;;
75620;SDS011;64574;48.506;-2.750;2023-05-15T07:28:43;2.67;;;0.73;;
75620;SDS011;64574;48.506;-2.750;2023-05-15T07:31:08;1.75;;;0.80;;
75620;SDS011;64574;48.506;-2.750;2023-05-15T07:33:34;1.33;;;0.60;;
75620;SDS011;64574;48.506;-2.750;2023-05-15T07:36:00;1.95;;;0.70;;
75620;SDS011;64574;48.506;-2.750;2023-05-15T07:38:25;2.15;;;0.80;;
75620;SDS011;64574;48.506;-2.750;2023-05-15T07:40:51;1.42;;;0.70;;
75620;SDS011;64574;48.506;-2.750;2023-05-15T07:43:16;4.22;;;1.27;;
75620;SDS011;64574;48.506;-2.750;2023-05-15T07:45:42;2.00;;;0.77;;
75620;SDS011;64574;48.506;-2.750;2023-05-15T07:48:15;3.97;;;1.20;;
75620;SDS011;64574;48.506;-2.750;2023-05-15T07:50:43;1.42;;;0.95;;
75620;SDS011;64574;48.506;-2.750;2023-05-15T07:53:10;2.30;;;1.50;;
75620;SDS011;64574;48.506;-2.750;2023-05-15T07:55:36;3.03;;;1.42;;
75620;SDS011;64574;48.506;-2.750;2023-05-15T07:58:02;4.75;;;1.20;;
75620;SDS011;64574;48.506;-2.750;2023-05-15T08:00:28;2.50;;;1.60;;
75620;SDS011;64574;48.506;-2.750;2023-05-15T08:02:53;3.92;;;1.70;;
75620;SDS011;64574;48.506;-2.750;2023-05-15T08:05:19;3.70;;;2.00;;
75620;SDS011;64574;48.506;-2.750;2023-05-15T08:07:44;4.22;;;2.53;;
75620;SDS011;64574;48.506;-2.750;2023-05-15T08:10:10;4.45;;;2.50;;
75620;SDS011;64574;48.506;-2.750;2023-05-15T08:12:36;6.28;;;2.40;;
75620;SDS011;64574;48.506;-2.750;2023-05-15T08:15:02;6.47;;;2.17;;
75620;SDS011;64574;48.506;-2.750;2023-05-15T08:17:28;7.47;;;1.95;;
75620;SDS011;64574;48.506;-2.750;2023-05-15T08:19:54;12.82;;;1.92;;
75620;SDS011;64574;48.506;-2.750;2023-05-15T08:22:20;10.27;;;2.50;;
75620;SDS011;64574;48.506;-2.750;2023-05-15T08:24:45;10.57;;;2.53;;
75620;SDS011;64574;48.506;-2.750;2023-05-15T08:27:11;12.38;;;2.50;;
75620;SDS011;64574;48.506;-2.750;2023-05-15T08:29:37;8.55;;;2.70;;
75620;SDS011;64574;48.506;-2.750;2023-05-15T08:32:04;9.70;;;2.50;;
75620;SDS011;64574;48.506;-2.750;2023-05-15T08:34:30;11.15;;;2.53;;
75620;SDS011;64574;48.506;-2.750;2023-05-15T08:36:57;10.25;;;2.45;;
75620;SDS011;64574;48.506;-2.750;2023-05-15T08:39:23;7.65;;;2.17;;
75620;SDS011;64574;48.506;-2.750;2023-05-15T08:42:04;12.93;;;2.88;;
75620;SDS011;64574;48.506;-2.750;2023-05-15T08:44:51;7.82;;;2.53;;
75620;SDS011;64574;48.506;-2.750;2023-05-15T08:47:19;8.07;;;2.25;;
75620;SDS011;64574;48.506;-2.750;2023-05-15T08:49:57;12.32;;;2.20;;
75620;SDS011;64574;48.506;-2.750;2023-05-15T08:52:31;6.40;;;2.20;;
75620;SDS011;64574;48.506;-2.750;2023-05-15T08:54:58;7.35;;;2.33;;
75620;SDS011;64574;48.506;-2.750;2023-05-15T08:57:25;8.30;;;1.80;;
75620;SDS011;64574;48.506;-2.750;2023-05-15T08:59:56;4.97;;;2.28;;
75620;SDS011;64574;48.506;-2.750;2023-05-15T09:02:23;6.90;;;2.38;;
75620;SDS011;64574;48.506;-2.750;2023-05-15T09:04:52;7.22;;;1.92;;
75620;SDS011;64574;48.506;-2.750;2023-05-15T09:07:18;7.18;;;2.00;;
75620;SDS011;64574;48.506;-2.750;2023-05-15T09:09:44;8.23;;;2.00;;
75620;SDS011;64574;48.506;-2.750;2023-05-15T09:12:13;5.78;;;1.77;;
75620;SDS011;64574;48.506;-2.750;2023-05-15T09:14:40;5.82;;;1.70;;
75620;SDS011;64574;48.506;-2.750;2023-05-15T09:17:08;5.72;;;1.90;;
75620;SDS011;64574;48.506;-2.750;2023-05-15T09:19:35;8.68;;;2.33;;
75620;SDS011;64574;48.506;-2.750;2023-05-15T09:22:17;8.98;;;1.90;;
75620;SDS011;64574;48.506;-2.750;2023-05-15T09:24:48;7.72;;;1.70;;
75620;SDS011;64574;48.506;-2.750;2023-05-15T09:27:17;7.32;;;1.70;;
75620;SDS011;64574;48.506;-2.750;2023-05-15T09:29:44;6.95;;;1.40;;
75620;SDS011;64574;48.506;-2.750;2023-05-15T09:32:11;6.72;;;1.35;;
75620;SDS011;64574;48.506;-2.750;2023-05-15T09:34:42;8.68;;;1.60;;
75620;SDS011;64574;48.506;-2.750;2023-05-15T09:37:09;7.97;;;1.83;;
75620;SDS011;64574;48.506;-2.750;2023-05-15T09:39:51;7.93;;;1.73;;
75620;SDS011;64574;48.506;-2.750;2023-05-15T09:42:16;7.65;;;1.55;;
75620;SDS011;64574;48.506;-2.750;2023-05-15T09:44:42;8.05;;;1.77;;
75620;SDS011;64574;48.506;-2.750;2023-05-15T09:49:36;7.55;;;1.27;;
75620;SDS011;64574;48.506;-2.750;2023-05-15T09:52:01;6.05;;;1.60;;
75620;SDS011;64574;48.506;-2.750;2023-05-15T09:54:27;4.43;;;1.25;;
75620;SDS011;64574;48.506;-2.750;2023-05-15T09:56:55;5.95;;;1.50;;
75620;SDS011;64574;48.506;-2.750;2023-05-15T09:59:21;7.90;;;1.63;;
75620;SDS011;64574;48.506;-2.750;2023-05-15T10:01:47;10.27;;;1.42;;
75620;SDS011;64574;48.506;-2.750;2023-05-15T10:04:15;5.93;;;1.38;;
75620;SDS011;64574;48.506;-2.750;2023-05-15T10:06:41;7.35;;;1.27;;
75620;SDS011;64574;48.506;-2.750;2023-05-15T10:09:10;6.82;;;1.67;;
75620;SDS011;64574;48.506;-2.750;2023-05-15T10:11:37;5.97;;;1.02;;
75620;SDS011;64574;48.506;-2.750;2023-05-15T10:14:05;5.20;;;1.50;;
75620;SDS011;64574;48.506;-2.750;2023-05-15T10:16:35;13.77;;;1.80;;
75620;SDS011;64574;48.506;-2.750;2023-05-15T10:19:03;6.72;;;1.40;;
75620;SDS011;64574;48.506;-2.750;2023-05-15T10:21:34;6.97;;;1.40;;
75620;SDS011;64574;48.506;-2.750;2023-05-15T10:24:02;6.28;;;1.20;;
75620;SDS011;64574;48.506;-2.750;2023-05-15T10:26:34;8.25;;;1.20;;
75620;SDS011;64574;48.506;-2.750;2023-05-15T10:29:03;11.93;;;1.90;;
75620;SDS011;64574;48.506;-2.750;2023-05-15T10:31:30;6.20;;;1.90;;
75620;SDS011;64574;48.506;-2.750;2023-05-15T10:33:57;6.07;;;1.50;;
75620;SDS011;64574;48.506;-2.750;2023-05-15T10:36:24;3.80;;;1.20;;
75620;SDS011;64574;48.506;-2.750;2023-05-15T10:38:51;3.90;;;1.00;;
75620;SDS011;64574;48.506;-2.750;2023-05-15T10:41:17;5.43;;;1.10;;
75620;SDS011;64574;48.506;-2.750;2023-05-15T10:43:44;6.72;;;1.65;;
75620;SDS011;64574;48.506;-2.750;2023-05-15T10:46:11;7.20;;;1.13;;
75620;SDS011;64574;48.506;-2.750;2023-05-15T10:48:37;6.93;;;1.20;;
75620;SDS011;64574;48.506;-2.750;2023-05-15T10:51:04;5.45;;;1.20;;
75620;SDS011;64574;48.506;-2.750;2023-05-15T10:53:30;7.85;;;1.95;;
75620;SDS011;64574;48.506;-2.750;2023-05-15T10:55:57;5.78;;;1.00;;
75620;SDS011;64574;48.506;-2.750;2023-05-15T10:58:22;7.78;;;1.08;;
75620;SDS011;64574;48.506;-2.750;2023-05-15T11:00:48;9.18;;;1.30;;
75620;SDS011;64574;48.506;-2.750;2023-05-15T11:03:33;7.10;;;1.10;;
75620;SDS011;64574;48.506;-2.750;2023-05-15T11:06:07;13.70;;;1.70;;
75620;SDS011;64574;48.506;-2.750;2023-05-15T11:08:38;9.13;;;1.30;;
75620;SDS011;64574;48.506;-2.750;2023-05-15T11:11:05;6.78;;;1.52;;
75620;SDS011;64574;48.506;-2.750;2023-05-15T11:21:59;3.88;;;0.95;;
75620;SDS011;64574;48.506;-2.750;2023-05-15T11:24:50;8.55;;;1.13;;
75620;SDS011;64574;48.506;-2.750;2023-05-15T11:27:22;5.00;;;1.00;;
75620;SDS011;64574;48.506;-2.750;2023-05-15T11:32:55;9.25;;;1.52;;
75620;SDS011;64574;48.506;-2.750;2023-05-15T11:38:10;7.93;;;1.42;;
75620;SDS011;64574;48.506;-2.750;2023-05-15T11:40:54;8.02;;;1.23;;
75620;SDS011;64574;48.506;-2.750;2023-05-15T11:45:52;5.85;;;1.13;;
75620;SDS011;64574;48.506;-2.750;2023-05-15T11:48:20;9.23;;;1.30;;
75620;SDS011;64574;48.506;-2.750;2023-05-15T11:50:47;6.97;;;1.08;;
75620;SDS011;64574;48.506;-2.750;2023-05-15T11:53:14;6.30;;;0.90;;
75620;SDS011;64574;48.506;-2.750;2023-05-15T11:55:41;7.68;;;1.20;;
75620;SDS011;64574;48.506;-2.750;2023-05-15T11:58:12;7.07;;;0.77;;
75620;SDS011;64574;48.506;-2.750;2023-05-15T12:00:42;11.48;;;1.40;;
75620;SDS011;64574;48.506;-2.750;2023-05-15T12:06:11;5.45;;;0.95;;
75620;SDS011;64574;48.506;-2.750;2023-05-15T12:08:36;5.07;;;1.13;;
75620;SDS011;64574;48.506;-2.750;2023-05-15T12:11:02;5.95;;;1.00;;
75620;SDS011;64574;48.506;-2.750;2023-05-15T12:13:29;5.85;;;1.30;;
75620;SDS011;64574;48.506;-2.750;2023-05-15T12:15:56;5.88;;;1.00;;
75620;SDS011;64574;48.506;-2.750;2023-05-15T12:18:23;5.47;;;0.80;;
75620;SDS011;64574;48.506;-2.750;2023-05-15T12:20:50;5.47;;;1.25;;
75620;SDS011;64574;48.506;-2.750;2023-05-15T12:23:16;7.60;;;1.13;;
75620;SDS011;64574;48.506;-2.750;2023-05-15T12:25:45;6.78;;;1.70;;
75620;SDS011;64574;48.506;-2.750;2023-05-15T12:30:38;4.65;;;1.33;;
75620;SDS011;64574;48.506;-2.750;2023-05-15T12:33:04;8.77;;;1.23;;
75620;SDS011;64574;48.506;-2.750;2023-05-15T12:35:31;5.90;;;1.00;;
75620;SDS011;64574;48.506;-2.750;2023-05-15T12:38:03;4.43;;;1.33;;
75620;SDS011;64574;48.506;-2.750;2023-05-15T12:40:33;3.35;;;1.00;;
75620;SDS011;64574;48.506;-2.750;2023-05-15T12:43:03;5.93;;;0.90;;
75620;SDS011;64574;48.506;-2.750;2023-05-15T12:45:33;5.22;;;1.60;;
75620;SDS011;64574;48.506;-2.750;2023-05-15T12:48:01;3.90;;;1.13;;
75620;SDS011;64574;48.506;-2.750;2023-05-15T12:50:27;4.72;;;1.10;;
75620;SDS011;64574;48.506;-2.750;2023-05-15T12:52:56;4.03;;;1.25;;
75620;SDS011;64574;48.506;-2.750;2023-05-15T12:57:54;14.82;;;2.90;;
75620;SDS011;64574;48.506;-2.750;2023-05-15T13:00:21;5.72;;;0.90;;
75620;SDS011;64574;48.506;-2.750;2023-05-15T13:02:56;6.00;;;1.00;;
75620;SDS011;64574;48.506;-2.750;2023-05-15T13:05:25;4.95;;;1.15;;
75620;SDS011;64574;48.506;-2.750;2023-05-15T13:07:52;5.68;;;1.15;;
75620;SDS011;64574;48.506;-2.750;2023-05-15T13:10:20;6.00;;;1.20;;
75620;SDS011;64574;48.506;-2.750;2023-05-15T13:12:48;6.65;;;0.98;;
75620;SDS011;64574;48.506;-2.750;2023-05-15T13:15:24;5.45;;;0.80;;
75620;SDS011;64574;48.506;-2.750;2023-05-15T13:18:02;6.30;;;0.95;;
75620;SDS011;64574;48.506;-2.750;2023-05-15T13:20:31;8.05;;;1.20;;
75620;SDS011;64574;48.506;-2.750;2023-05-15T13:22:58;7.88;;;0.90;;
75620;SDS011;64574;48.506;-2.750;2023-05-15T13:27:50;6.68;;;0.85;;
75620;SDS011;64574;48.506;-2.750;2023-05-15T13:30:17;7.53;;;1.08;;
75620;SDS011;64574;48.506;-2.750;2023-05-15T13:32:42;8.02;;;0.95;;
75620;SDS011;64574;48.506;-2.750;2023-05-15T13:35:09;6.00;;;0.93;;
75620;SDS011;64574;48.506;-2.750;2023-05-15T13:37:35;3.42;;;0.88;;
75620;SDS011;64574;48.506;-2.750;2023-05-15T13:40:02;6.70;;;1.33;;
75620;SDS011;64574;48.506;-2.750;2023-05-15T13:42:30;8.18;;;1.48;;
75620;SDS011;64574;48.506;-2.750;2023-05-15T13:44:56;4.95;;;0.90;;
75620;SDS011;64574;48.506;-2.750;2023-05-15T13:47:22;3.10;;;0.80;;
75620;SDS011;64574;48.506;-2.750;2023-05-15T13:49:47;5.47;;;1.05;;
75620;SDS011;64574;48.506;-2.750;2023-05-15T13:52:13;6.05;;;0.90;;
75620;SDS011;64574;48.506;-2.750;2023-05-15T13:54:39;7.05;;;1.10;;
75620;SDS011;64574;48.506;-2.750;2023-05-15T13:57:04;6.57;;;1.00;;
75620;SDS011;64574;48.506;-2.750;2023-05-15T13:59:30;7.63;;;1.20;;
75620;SDS011;64574;48.506;-2.750;2023-05-15T14:01:56;6.35;;;0.95;;
75620;SDS011;64574;48.506;-2.750;2023-05-15T14:04:21;3.42;;;0.98;;
75620;SDS011;64574;48.506;-2.750;2023-05-15T14:06:50;5.03;;;0.85;;
75620;SDS011;64574;48.506;-2.750;2023-05-15T14:09:16;5.15;;;0.73;;
75620;SDS011;64574;48.506;-2.750;2023-05-15T14:11:41;5.05;;;1.00;;
75620;SDS011;64574;48.506;-2.750;2023-05-15T14:14:07;9.77;;;1.67;;
75620;SDS011;64574;48.506;-2.750;2023-05-15T14:16:33;8.88;;;1.20;;
75620;SDS011;64574;48.506;-2.750;2023-05-15T14:18:58;5.45;;;1.23;;
75620;SDS011;64574;48.506;-2.750;2023-05-15T14:21:24;7.35;;;1.10;;
75620;SDS011;64574;48.506;-2.750;2023-05-15T14:23:50;6.95;;;1.02;;
75620;SDS011;64574;48.506;-2.750;2023-05-15T14:26:15;7.07;;;1.00;;
75620;SDS011;64574;48.506;-2.750;2023-05-15T14:28:41;7.07;;;0.90;;
75620;SDS011;64574;48.506;-2.750;2023-05-15T14:31:06;7.05;;;1.17;;
75620;SDS011;64574;48.506;-2.750;2023-05-15T14:33:32;4.53;;;0.85;;
75620;SDS011;64574;48.506;-2.750;2023-05-15T14:35:58;4.13;;;0.70;;
75620;SDS011;64574;48.506;-2.750;2023-05-15T14:38:24;5.25;;;1.08;;
75620;SDS011;64574;48.506;-2.750;2023-05-15T14:40:50;5.38;;;1.02;;
75620;SDS011;64574;48.506;-2.750;2023-05-15T14:43:16;4.60;;;1.10;;
75620;SDS011;64574;48.506;-2.750;2023-05-15T14:45:41;3.17;;;0.85;;
75620;SDS011;64574;48.506;-2.750;2023-05-15T14:48:07;5.38;;;0.98;;
75620;SDS011;64574;48.506;-2.750;2023-05-15T14:50:33;4.60;;;0.90;;
75620;SDS011;64574;48.506;-2.750;2023-05-15T14:52:59;6.38;;;0.95;;
75620;SDS011;64574;48.506;-2.750;2023-05-15T14:55:24;5.07;;;0.80;;
75620;SDS011;64574;48.506;-2.750;2023-05-15T14:57:50;2.88;;;0.90;;
75620;SDS011;64574;48.506;-2.750;2023-05-15T15:00:16;6.28;;;1.48;;
75620;SDS011;64574;48.506;-2.750;2023-05-15T15:02:42;7.03;;;1.00;;
75620;SDS011;64574;48.506;-2.750;2023-05-15T15:05:08;4.90;;;0.90;;
75620;SDS011;64574;48.506;-2.750;2023-05-15T15:08:16;3.58;;;0.70;;
75620;SDS011;64574;48.506;-2.750;2023-05-15T15:10:30;6.60;;;0.95;;
75620;SDS011;64574;48.506;-2.750;2023-05-15T15:12:57;6.20;;;0.70;;
75620;SDS011;64574;48.506;-2.750;2023-05-15T15:15:23;3.80;;;0.90;;
75620;SDS011;64574;48.506;-2.750;2023-05-15T15:17:49;2.55;;;0.75;;
75620;SDS011;64574;48.506;-2.750;2023-05-15T15:20:16;4.88;;;0.90;;
75620;SDS011;64574;48.506;-2.750;2023-05-15T15:22:43;5.25;;;0.80;;
75620;SDS011;64574;48.506;-2.750;2023-05-15T15:25:09;7.55;;;0.93;;